Map

Track Data

SID SEASON NUMBER BASIN SUBBASIN NAME ISO_TIME NATURE LAT LON WMO_WIND WMO_PRES WMO_AGENCY TRACK_TYPE DIST2LAND LANDFALL IFLAG USA_AGENCY USA_ATCF_ID USA_LAT USA_LON USA_RECORD USA_STATUS USA_WIND USA_PRES USA_SSHS USA_R34_NE USA_R34_SE USA_R34_SW USA_R34_NW USA_R50_NE USA_R50_SE USA_R50_SW USA_R50_NW USA_R64_NE USA_R64_SE USA_R64_SW USA_R64_NW USA_POCI USA_ROCI USA_RMW USA_EYE TOKYO_LAT TOKYO_LON TOKYO_GRADE TOKYO_WIND TOKYO_PRES TOKYO_R50_DIR TOKYO_R50_LONG TOKYO_R50_SHORT TOKYO_R30_DIR TOKYO_R30_LONG TOKYO_R30_SHORT TOKYO_LAND CMA_LAT CMA_LON CMA_CAT CMA_WIND CMA_PRES HKO_LAT HKO_LON HKO_CAT HKO_WIND HKO_PRES NEWDELHI_LAT NEWDELHI_LON NEWDELHI_GRADE NEWDELHI_WIND NEWDELHI_PRES NEWDELHI_CI NEWDELHI_DP NEWDELHI_POCI REUNION_LAT REUNION_LON REUNION_TYPE REUNION_WIND REUNION_PRES REUNION_TNUM REUNION_CI REUNION_RMW REUNION_R34_NE REUNION_R34_SE REUNION_R34_SW REUNION_R34_NW REUNION_R50_NE REUNION_R50_SE REUNION_R50_SW REUNION_R50_NW REUNION_R64_NE REUNION_R64_SE REUNION_R64_SW REUNION_R64_NW BOM_LAT BOM_LON BOM_TYPE BOM_WIND BOM_PRES BOM_TNUM BOM_CI BOM_RMW BOM_R34_NE BOM_R34_SE BOM_R34_SW BOM_R34_NW BOM_R50_NE BOM_R50_SE BOM_R50_SW BOM_R50_NW BOM_R64_NE BOM_R64_SE BOM_R64_SW BOM_R64_NW BOM_ROCI BOM_POCI BOM_EYE BOM_POS_METHOD BOM_PRES_METHOD NADI_LAT NADI_LON NADI_CAT NADI_WIND NADI_PRES WELLINGTON_LAT WELLINGTON_LON WELLINGTON_WIND WELLINGTON_PRES DS824_LAT DS824_LON DS824_STAGE DS824_WIND DS824_PRES TD9636_LAT TD9636_LON TD9636_STAGE TD9636_WIND TD9636_PRES TD9635_LAT TD9635_LON TD9635_WIND TD9635_PRES TD9635_ROCI NEUMANN_LAT NEUMANN_LON NEUMANN_CLASS NEUMANN_WIND NEUMANN_PRES MLC_LAT MLC_LON MLC_CLASS MLC_WIND MLC_PRES USA_GUST BOM_GUST BOM_GUST_PER REUNION_GUST REUNION_GUST_PER USA_SEAHGT USA_SEARAD_NE USA_SEARAD_SE USA_SEARAD_SW USA_SEARAD_NW STORM_SPEED STORM_DIR
1971219N15259 1971 86 EP MM JEWEL 1971-08-06 12:00:00 TS 15.5000 -101.200 25 hurdat_epa main 194 194 O________OO___ hurdat_epa EP101971 15.5000 -101.200 TD 25 -1 15.5000 -101.200 TC 25 15.5000 -101.200 1 8 270
1971219N15259 1971 86 EP MM JEWEL 1971-08-06 15:00:00 TS 15.5006 -101.601 main 208 208 P________PP___ EP101971 15.5001 -101.600 TD 27 -1 15.5001 -101.600 TC 27 15.5022 -101.603 1 8 270
1971219N15259 1971 86 EP MM JEWEL 1971-08-06 18:00:00 TS 15.5007 -102.001 30 hurdat_epa main 223 223 O________OP___ hurdat_epa EP101971 15.5000 -102.000 TD 30 -1 15.5000 -102.000 TC 30 15.5033 -102.005 1 8 270
1971219N15259 1971 86 EP MM JEWEL 1971-08-06 21:00:00 TS 15.5005 -102.401 main 244 244 P________PP___ EP101971 15.4999 -102.400 TD 30 -1 15.4999 -102.400 TC 30 15.5027 -102.404 1 8 270
1971219N15259 1971 86 EP MM JEWEL 1971-08-07 00:00:00 TS 15.5000 -102.800 30 hurdat_epa main 271 271 O________OO___ hurdat_epa EP101971 15.5000 -102.800 TD 30 -1 15.5000 -102.800 TC 30 15.5000 -102.800 2 8 269
1971219N15259 1971 86 EP MM JEWEL 1971-08-07 03:00:00 TS 15.4933 -103.193 main 285 285 P________PP___ EP101971 15.4924 -103.193 TD 35 0 15.4924 -103.193 TC 35 15.4970 -103.194 2 8 270
1971219N15259 1971 86 EP MM JEWEL 1971-08-07 06:00:00 TS 15.5008 -103.600 40 hurdat_epa main 299 299 O________OP___ hurdat_epa EP101971 15.5000 -103.600 TS 40 0 15.5000 -103.600 TC 40 15.5042 -103.598 2 8 273
1971219N15259 1971 86 EP MM JEWEL 1971-08-07 09:00:00 TS 15.5347 -104.022 main 313 309 P________PP___ EP101971 15.5348 -104.020 TS 40 0 15.5348 -104.020 TC 40 15.5343 -104.028 2 9 277
1971219N15259 1971 86 EP MM JEWEL 1971-08-07 12:00:00 TS 15.6000 -104.500 40 hurdat_epa main 320 320 O________OO___ hurdat_epa EP101971 15.6000 -104.500 TS 40 0 15.6000 -104.500 TC 40 15.6000 -104.500 2 10 278
1971219N15259 1971 86 EP MM JEWEL 1971-08-07 15:00:00 TS 15.6826 -105.082 main 337 337 P________PP___ EP101971 15.6776 -105.085 TS 47 0 15.6776 -105.085 TC 47 15.7025 -105.068 2 12 280
1971219N15259 1971 86 EP MM JEWEL 1971-08-07 18:00:00 TS 15.8082 -105.694 55 hurdat_epa main 364 364 O________OP___ hurdat_epa EP101971 15.8000 -105.700 TS 55 0 15.8000 -105.700 TC 55 15.8410 -105.672 2 12 285
1971219N15259 1971 86 EP MM JEWEL 1971-08-07 21:00:00 TS 15.9898 -106.283 main 391 390 P________PP___ EP101971 15.9850 -106.287 TS 55 0 15.9850 -106.287 TC 55 16.0088 -106.265 2 11 290
1971219N15259 1971 86 EP MM JEWEL 1971-08-08 00:00:00 TS 16.2000 -106.800 55 hurdat_epa main 396 393 O________OO___ hurdat_epa EP101971 16.2000 -106.800 TS 55 0 16.2000 -106.800 TC 55 16.2000 -106.800 2 10 295
1971219N15259 1971 86 EP MM JEWEL 1971-08-08 03:00:00 TS 16.3927 -107.187 main 403 400 P________PP___ EP101971 16.3923 -107.180 TS 57 0 16.3923 -107.180 TC 57 16.3945 -107.215 2 8 300
1971219N15259 1971 86 EP MM JEWEL 1971-08-08 06:00:00 TS 16.6023 -107.514 60 hurdat_epa main 407 407 O________OP___ hurdat_epa EP101971 16.6000 -107.500 TS 60 0 16.6000 -107.500 TC 60 16.6114 -107.568 2 8 305
1971219N15259 1971 86 EP MM JEWEL 1971-08-08 09:00:00 TS 16.8435 -107.857 main 422 414 P________PP___ EP101971 16.8424 -107.850 TS 60 0 16.8424 -107.850 TC 60 16.8477 -107.887 2 8 307
1971219N15259 1971 86 EP MM JEWEL 1971-08-08 12:00:00 TS 17.1000 -108.200 60 hurdat_epa main 422 422 O________OO___ hurdat_epa EP101971 17.1000 -108.200 TS 60 0 17.1000 -108.200 TC 60 17.1000 -108.200 2 8 307
1971219N15259 1971 86 EP MM JEWEL 1971-08-08 15:00:00 TS 17.3476 -108.548 main 431 431 P________PP___ EP101971 17.3424 -108.550 TS 50 0 17.3424 -108.550 TC 50 17.3684 -108.538 2 8 308
1971219N15259 1971 86 EP MM JEWEL 1971-08-08 18:00:00 TS 17.6099 -108.896 40 hurdat_epa main 446 446 O________OP___ hurdat_epa EP101971 17.6000 -108.900 TS 40 0 17.6000 -108.900 TC 40 17.6495 -108.878 2 9 310
1971219N15259 1971 86 EP MM JEWEL 1971-08-08 21:00:00 TS 17.9061 -109.240 main 454 454 P________PP___ EP101971 17.8999 -109.243 TS 40 0 17.8999 -109.243 TC 40 17.9309 -109.229 2 9 311
1971219N15259 1971 86 EP MM JEWEL 1971-08-09 00:00:00 TS 18.2000 -109.600 40 hurdat_epa main 475 475 O________OO___ hurdat_epa EP101971 18.2000 -109.600 TS 40 0 18.2000 -109.600 TC 40 18.2000 -109.600 2 9 308
1971219N15259 1971 86 EP MM JEWEL 1971-08-09 03:00:00 TS 18.4655 -109.987 main 492 470 P________PP___ EP101971 18.4649 -109.985 TS 40 0 18.4649 -109.985 TC 40 18.4676 -109.995 2 9 303
1971219N15259 1971 86 EP MM JEWEL 1971-08-09 06:00:00 TS 18.7034 -110.402 40 hurdat_epa main 471 453 O________OP___ hurdat_epa EP101971 18.7000 -110.400 TS 40 0 18.7000 -110.400 TC 40 18.7172 -110.412 2 9 300
1971219N15259 1971 86 EP MM JEWEL 1971-08-09 09:00:00 TS 18.9306 -110.844 main 454 440 P________PP___ EP101971 18.9299 -110.842 TS 40 0 18.9299 -110.842 TC 40 18.9332 -110.848 2 9 295
1971219N15259 1971 86 EP MM JEWEL 1971-08-09 12:00:00 TS 19.1000 -111.300 40 hurdat_epa main 445 445 O________OO___ hurdat_epa EP101971 19.1000 -111.300 TS 40 0 19.1000 -111.300 TC 40 19.1000 -111.300 2 9 286
1971219N15259 1971 86 EP MM JEWEL 1971-08-09 15:00:00 TS 19.1764 -111.752 main 453 453 P________PP___ EP101971 19.1723 -111.743 TS 37 0 19.1723 -111.743 TC 37 19.1924 -111.790 2 9 277
1971219N15259 1971 86 EP MM JEWEL 1971-08-09 18:00:00 TS 19.2076 -112.218 35 hurdat_epa main 472 472 O________OP___ hurdat_epa EP101971 19.2000 -112.200 TS 35 0 19.2000 -112.200 TC 35 19.2379 -112.288 2 9 274
1971219N15259 1971 86 EP MM JEWEL 1971-08-09 21:00:00 TS 19.2470 -112.732 main 499 496 P________PP___ EP101971 19.2426 -112.723 TS 35 0 19.2426 -112.723 TC 35 19.2644 -112.768 2 9 276
1971219N15259 1971 86 EP MM JEWEL 1971-08-10 00:00:00 TS 19.3000 -113.200 35 hurdat_epa main 521 521 O________OO___ hurdat_epa EP101971 19.3000 -113.200 TS 35 0 19.3000 -113.200 TC 35 19.3000 -113.200 2 8 281
1971219N15259 1971 86 EP MM JEWEL 1971-08-10 03:00:00 TS 19.3892 -113.534 main 533 533 P________PP___ EP101971 19.3923 -113.530 TS 32 -1 19.3923 -113.530 TC 32 19.3768 -113.550 2 6 289
1971219N15259 1971 86 EP MM JEWEL 1971-08-10 06:00:00 TS 19.4938 -113.811 30 hurdat_epa main 547 547 O________OP___ hurdat_epa EP101971 19.5000 -113.800 TD 30 -1 19.5000 -113.800 TC 30 19.4692 -113.853 2 6 290
1971219N15259 1971 86 EP MM JEWEL 1971-08-10 09:00:00 TS 19.5894 -114.106 main 562 562 P________PP___ EP101971 19.5925 -114.100 TD 30 -1 19.5925 -114.100 TC 30 19.5770 -114.129 2 6 290
1971219N15259 1971 86 EP MM JEWEL 1971-08-10 12:00:00 TS 19.7000 -114.400 30 hurdat_epa main 579 579 O________OO___ hurdat_epa EP101971 19.7000 -114.400 TD 30 -1 19.7000 -114.400 TC 30 19.7000 -114.400 2 6 294
1971219N15259 1971 86 EP MM JEWEL 1971-08-10 15:00:00 TS 19.8410 -114.698 main 597 590 P________PP___ EP101971 19.8425 -114.700 TD 30 -1 19.8425 -114.700 TC 30 19.8353 -114.688 2 6 298
1971219N15259 1971 86 EP MM JEWEL 1971-08-10 18:00:00 TS 19.9969 -114.996 30 hurdat_epa main 601 597 O________OP___ hurdat_epa EP101971 20.0000 -115.000 TD 30 -1 20.0000 -115.000 TC 30 19.9846 -114.978 2 6 299
1971219N15259 1971 86 EP MM JEWEL 1971-08-10 21:00:00 TS 20.1482 -115.290 main 609 600 P________PP___ EP101971 20.1499 -115.293 TD 30 -1 20.1499 -115.293 TC 30 20.1415 -115.279 2 6 298
1971219N15259 1971 86 EP MM JEWEL 1971-08-11 00:00:00 TS 20.3000 -115.600 30 hurdat_epa main 609 606 O________OO___ hurdat_epa EP101971 20.3000 -115.600 TD 30 -1 20.3000 -115.600 TC 30 20.3000 -115.600 6 7 296
1971219N15259 1971 86 EP MM JEWEL 1971-08-11 03:00:00 TS 20.4509 -115.938 main 610 610 P________PP___ EP101971 20.4499 -115.935 TD 27 -1 20.4499 -115.935 TC 27 20.4549 -115.948 6 7 295
1971219N15259 1971 86 EP MM JEWEL 1971-08-11 06:00:00 TS 20.6012 -116.304 25 hurdat_epa main 628 627 O________OP___ hurdat_epa EP101971 20.6000 -116.300 TD 25 -1 20.6000 -116.300 TC 25 20.6059 -116.319 6 8 293
1971219N15259 1971 86 EP MM JEWEL 1971-08-11 09:00:00 TS 20.7509 -116.695 main 642 642 P________PP___ EP101971 20.7502 -116.692 TD 25 -1 20.7502 -116.692 TC 25 20.7539 -116.706 6 8 292
1971219N15259 1971 86 EP MM JEWEL 1971-08-11 12:00:00 TS 20.9000 -117.100 25 hurdat_epa main 664 O________OO___ hurdat_epa EP101971 20.9000 -117.100 TD 25 -1 20.9000 -117.100 TC 25 20.9000 -117.100 6 8 292

About IBTrACS Database

This database is a web-friendly format of International Best Track Archive for Climate Stewardship (IBTrACS), a global best track data archive curated by NOAA dating back to 1842.

Updated: 2021-10-08